SHHS weather

Hospital del Salvador Heliport
Santiago, Santiago Metropolitan Region, Chile

Public forecast

Using degrees Celsius for public forecast. Weather courtesy of forecast.io.

Closest aviation weather report (METAR) to Hospital del Salvador Heliport

Closest report is Eulogio Sánchez Airport, 3.9 nm (7.3 km) ESE. Retrieved 2020/06/02 22:00 UTC (2 hours ago):

SCTB 022200Z 00000KT 2000 BR OVC100 12/08 Q1016

Closest aviation forecast (TAF) to Hospital del Salvador Heliport

Closest forecast is Comodoro Arturo Merino Benítez International Airport, 8.6 nm (16.0 km) WNW. Retrieved 2020/06/02 18:00 UTC (6 hours ago):

TAF SCEL 021615Z 0218/0318 19006KT 9999 FEW025 BKN130 TX14/0218Z TN07/0310Z BECMG 0221/0223 SCT040 BKN120 TEMPO 0303/0306 33006KT 8000 -SHRA SCT030 BKN090 BECMG 0306/0308 03005KT 7000 -RA SCT020 OVC040 BECMG 0313/0315 8000 SHRA BKN020 OVC050 BECMG 0315/0317 16005KT SCT030 BKN060